createdAt,value
2018-07-19T00:01:59.053Z,101120.77
2018-07-19T00:04:28.097Z,101119.89
2018-07-19T00:06:57.300Z,101112.25
2018-07-19T00:09:26.001Z,101114.84
2018-07-19T00:11:54.741Z,101111.79
2018-07-19T00:14:23.669Z,101108.00
2018-07-19T00:16:52.749Z,101109.13
2018-07-19T00:19:21.498Z,101118.64
2018-07-19T00:21:50.218Z,101119.10
2018-07-19T00:24:19.173Z,101129.39
2018-07-19T00:26:48.568Z,101124.44
2018-07-19T00:29:17.262Z,101126.84
2018-07-19T00:31:46.905Z,101124.36
2018-07-19T00:34:15.879Z,101130.58
2018-07-19T00:36:44.559Z,101132.91
2018-07-19T00:39:13.206Z,101125.17
2018-07-19T00:41:45.505Z,101129.25
2018-07-19T00:44:16.226Z,101127.52
2018-07-19T00:46:45.753Z,101124.80
2018-07-19T00:49:15.260Z,101126.75
2018-07-19T00:51:43.914Z,101125.70
2018-07-19T00:54:12.598Z,101124.27
2018-07-19T00:56:41.182Z,101119.36
2018-07-19T00:59:10.107Z,101119.58
2018-07-19T01:01:38.919Z,101119.29
2018-07-19T01:04:07.886Z,101119.09
2018-07-19T01:06:36.810Z,101117.73
2018-07-19T01:09:08.646Z,101110.86
2018-07-19T01:11:37.670Z,101115.53
2018-07-19T01:14:06.696Z,101111.60
2018-07-19T01:16:35.466Z,101108.88
2018-07-19T01:19:04.173Z,101110.34
2018-07-19T01:21:33.599Z,101111.14
2018-07-19T01:24:03.266Z,101108.52
2018-07-19T01:26:33.148Z,101112.77
2018-07-19T01:29:04.329Z,101109.28
2018-07-19T01:31:33.278Z,101117.64
2018-07-19T01:34:02.242Z,101113.27
2018-07-19T01:36:31.153Z,101115.09
2018-07-19T01:39:00.692Z,101121.06
2018-07-19T01:42:40.627Z,101119.17
2018-07-19T01:45:10.700Z,101124.22
2018-07-19T01:47:39.897Z,101122.56
2018-07-19T01:50:09.666Z,101124.98
2018-07-19T01:52:38.955Z,101116.45
2018-07-19T01:55:08.439Z,101119.70
2018-07-19T01:57:37.131Z,101122.62
2018-07-19T02:00:06.494Z,101123.21
2018-07-19T02:02:35.143Z,101126.53
2018-07-19T02:05:04.624Z,101121.87
2018-07-19T02:07:35.076Z,101124.36
2018-07-19T02:10:04.474Z,101123.66
2018-07-19T02:12:33.614Z,101117.38
2018-07-19T02:15:02.231Z,101117.91
2018-07-19T02:17:31.806Z,101113.51
2018-07-19T02:20:00.706Z,101118.41
2018-07-19T02:22:30.767Z,101124.06
2018-07-19T02:24:59.407Z,101118.41
2018-07-19T02:27:28.333Z,101118.04
2018-07-19T02:29:57.239Z,101121.48
2018-07-19T02:32:26.626Z,101118.30
2018-07-19T02:34:57.151Z,101126.91
2018-07-19T02:37:26.068Z,101120.59
2018-07-19T02:39:54.698Z,101123.39
2018-07-19T02:42:23.961Z,101121.44
2018-07-19T02:44:52.622Z,101122.98
2018-07-19T02:47:21.574Z,101128.34
2018-07-19T02:49:50.224Z,101126.22
2018-07-19T02:52:18.910Z,101131.94
2018-07-19T02:54:47.608Z,101128.10
2018-07-19T02:57:16.230Z,101126.59
2018-07-19T02:59:45.172Z,101128.47
2018-07-19T03:02:16.553Z,101130.66
2018-07-19T03:04:46.237Z,101130.25
2018-07-19T03:07:15.434Z,101125.05
2018-07-19T03:09:45.451Z,101125.51
2018-07-19T03:12:15.457Z,101129.27
2018-07-19T03:14:44.075Z,101125.63
2018-07-19T03:17:12.977Z,101127.21
2018-07-19T03:19:42.544Z,101121.48
2018-07-19T03:22:13.935Z,101132.30
2018-07-19T03:24:42.988Z,101130.94
2018-07-19T03:27:11.814Z,101130.94
2018-07-19T03:29:41.294Z,101130.98
2018-07-19T03:32:09.939Z,101130.68
2018-07-19T03:34:38.625Z,101136.21
2018-07-19T03:37:07.266Z,101130.79
2018-07-19T03:39:35.894Z,101139.75
2018-07-19T03:42:04.556Z,101129.97
2018-07-19T03:44:33.455Z,101135.39
2018-07-19T03:47:02.109Z,101135.31
2018-07-19T03:49:30.742Z,101133.66
2018-07-19T03:52:01.657Z,101135.19
2018-07-19T03:54:30.984Z,101132.48
2018-07-19T03:57:01.613Z,101133.19
2018-07-19T03:59:31.152Z,101136.43
2018-07-19T04:01:59.851Z,101132.70
2018-07-19T04:04:28.487Z,101139.56
2018-07-19T04:06:57.157Z,101135.80
2018-07-19T04:09:28.399Z,101131.20
2018-07-19T04:11:58.400Z,101144.68
2018-07-19T04:14:27.671Z,101138.81
2018-07-19T04:16:58.345Z,101136.92
2018-07-19T04:19:28.948Z,101134.74
2018-07-19T04:21:59.600Z,101137.60
2018-07-19T04:24:29.846Z,101141.22
2018-07-19T04:26:58.642Z,101143.50
2018-07-19T04:29:27.928Z,101148.31
2018-07-19T04:31:58.034Z,101144.86
2018-07-19T04:34:26.691Z,101142.90
2018-07-19T04:36:55.366Z,101144.56
2018-07-19T04:39:24.009Z,101147.39
2018-07-19T04:41:52.881Z,101146.19
2018-07-19T04:44:21.727Z,101145.09
2018-07-19T04:46:54.484Z,101142.69
2018-07-19T04:49:23.552Z,101149.57
2018-07-19T04:51:52.209Z,101148.34
2018-07-19T04:54:20.952Z,101153.53
2018-07-19T04:56:50.203Z,101153.83
2018-07-19T04:59:18.801Z,101157.67
2018-07-19T05:01:48.097Z,101159.07
2018-07-19T05:04:16.720Z,101156.13
2018-07-19T05:06:45.404Z,101157.63
2018-07-19T05:09:14.457Z,101161.14
2018-07-19T05:11:43.362Z,101160.88
2018-07-19T05:14:12.155Z,101164.45
2018-07-19T05:16:40.784Z,101165.13
2018-07-19T05:19:09.478Z,101170.14
2018-07-19T05:21:38.180Z,101171.80
2018-07-19T05:24:07.221Z,101164.83
2018-07-19T05:26:36.126Z,101168.25
2018-07-19T05:29:05.118Z,101164.02
2018-07-19T05:31:33.789Z,101167.84
2018-07-19T05:34:02.826Z,101165.49
2018-07-19T05:36:31.790Z,101171.55
2018-07-19T05:39:00.788Z,101169.20
2018-07-19T05:41:29.427Z,101173.69
2018-07-19T05:43:58.027Z,101177.86
2018-07-19T05:46:26.950Z,101178.00
2018-07-19T05:48:55.741Z,101173.14
2018-07-19T05:51:24.630Z,101169.06
2018-07-19T05:53:53.469Z,101169.66
2018-07-19T05:56:22.179Z,101167.88
2018-07-19T05:58:51.798Z,101165.27
2018-07-19T06:01:20.495Z,101164.73
2018-07-19T06:03:49.710Z,101169.73
2018-07-19T06:06:18.902Z,101171.26
2018-07-19T06:08:47.529Z,101167.02
2018-07-19T06:11:16.182Z,101165.76
2018-07-19T06:13:44.819Z,101168.57
2018-07-19T06:16:13.808Z,101166.59
2018-07-19T06:18:42.712Z,101163.67
2018-07-19T06:21:12.269Z,101159.89
2018-07-19T06:23:40.941Z,101161.08
2018-07-19T06:26:09.633Z,101158.93
2018-07-19T06:28:38.516Z,101163.98
2018-07-19T06:31:07.168Z,101164.67
2018-07-19T06:33:36.713Z,101166.71
2018-07-19T06:36:05.937Z,101169.13
2018-07-19T06:38:35.215Z,101170.23
2018-07-19T06:41:04.621Z,101160.62
2018-07-19T06:43:34.786Z,101167.44
2018-07-19T06:46:03.457Z,101172.03
2018-07-19T06:48:32.157Z,101180.47
2018-07-19T06:51:01.202Z,101170.77
2018-07-19T06:53:30.423Z,101172.20
2018-07-19T06:56:00.300Z,101176.98
2018-07-19T06:58:29.327Z,101171.47
2018-07-19T07:00:57.965Z,101176.77
2018-07-19T07:03:26.685Z,101179.14
2018-07-19T07:05:55.834Z,101181.54
2018-07-19T07:08:24.539Z,101180.00
2018-07-19T07:10:53.191Z,101181.95
2018-07-19T07:13:21.975Z,101185.44
2018-07-19T07:15:50.624Z,101187.38
2018-07-19T07:18:19.838Z,101187.03
2018-07-19T07:20:49.957Z,101184.15
2018-07-19T07:23:18.651Z,101189.00
2018-07-19T07:25:50.786Z,101186.47
2018-07-19T07:28:21.123Z,101193.44
2018-07-19T07:30:49.802Z,101188.00
2018-07-19T07:33:19.544Z,101193.25
2018-07-19T07:35:48.869Z,101189.27
2018-07-19T07:38:19.066Z,101188.81
2018-07-19T07:40:48.365Z,101191.67
2018-07-19T07:43:17.003Z,101189.45
2018-07-19T07:45:45.694Z,101188.80
2018-07-19T07:48:14.384Z,101192.41
2018-07-19T07:50:49.750Z,101195.03
2018-07-19T07:53:19.260Z,101197.52
2018-07-19T07:55:50.004Z,101204.56
2018-07-19T07:58:19.088Z,101196.94
2018-07-19T08:00:47.721Z,101202.33
2018-07-19T08:03:16.431Z,101199.02
2018-07-19T08:05:45.119Z,101199.15
2018-07-19T08:08:14.156Z,101202.45
2018-07-19T08:10:43.462Z,101205.95
2018-07-19T08:13:12.540Z,101204.55
2018-07-19T08:15:41.259Z,101202.87
2018-07-19T08:18:10.246Z,101201.24
2018-07-19T08:20:38.862Z,101199.39
2018-07-19T08:23:07.844Z,101203.05
2018-07-19T08:25:36.481Z,101200.38
2018-07-19T08:28:05.911Z,101200.91
2018-07-19T08:30:34.646Z,101199.02
2018-07-19T08:33:03.384Z,101195.72
2018-07-19T08:35:32.289Z,101208.75
2018-07-19T08:38:00.936Z,101208.50
2018-07-19T08:40:29.596Z,101209.48
2018-07-19T08:42:58.596Z,101208.30
2018-07-19T08:45:27.537Z,101212.99
2018-07-19T08:47:56.551Z,101217.00
2018-07-19T08:50:25.210Z,101219.68
2018-07-19T08:52:54.222Z,101225.97
2018-07-19T08:55:23.228Z,101223.77
2018-07-19T08:57:51.935Z,101222.88
2018-07-19T09:00:20.699Z,101218.45
2018-07-19T09:02:49.690Z,101223.49
2018-07-19T09:05:18.344Z,101227.69
2018-07-19T09:07:47.075Z,101230.34
2018-07-19T09:10:15.825Z,101233.60
2018-07-19T09:12:44.897Z,101225.08
2018-07-19T09:15:13.661Z,101231.47
2018-07-19T09:17:42.722Z,101233.31
2018-07-19T09:20:11.703Z,101230.47
2018-07-19T09:22:40.866Z,101232.66
2018-07-19T09:25:09.899Z,101228.85
2018-07-19T09:27:38.782Z,101230.30
2018-07-19T09:30:08.052Z,101232.55
2018-07-19T09:32:38.234Z,101231.77
2018-07-19T09:35:06.866Z,101236.44
2018-07-19T09:37:35.526Z,101232.91
2018-07-19T09:40:04.260Z,101232.19
2018-07-19T09:42:33.043Z,101228.16
2018-07-19T09:45:01.737Z,101227.45
2018-07-19T09:47:30.389Z,101236.69
2018-07-19T09:49:59.040Z,101223.89
2018-07-19T09:52:27.982Z,101232.59
2018-07-19T09:54:59.157Z,101234.79
2018-07-19T09:57:29.178Z,101229.92
2018-07-19T09:59:58.189Z,101232.22
2018-07-19T10:02:27.003Z,101233.06
2018-07-19T10:04:55.957Z,101231.86
2018-07-19T10:07:25.028Z,101233.55
2018-07-19T10:09:54.054Z,101238.56
2018-07-19T10:12:22.684Z,101237.55
2018-07-19T10:14:51.277Z,101248.64
2018-07-19T10:17:19.973Z,101236.67
2018-07-19T10:19:48.890Z,101236.38
2018-07-19T10:22:18.176Z,101242.94
2018-07-19T10:24:46.841Z,101246.20
2018-07-19T10:27:15.621Z,101245.18
2018-07-19T10:29:44.642Z,101247.80
2018-07-19T10:32:13.339Z,101243.91
2018-07-19T10:34:41.977Z,101245.03
2018-07-19T10:37:10.609Z,101239.28
2018-07-19T10:39:39.953Z,101234.83
2018-07-19T10:42:08.789Z,101245.55
2018-07-19T10:44:37.669Z,101244.20
2018-07-19T10:47:06.383Z,101240.99
2018-07-19T10:49:35.068Z,101241.82
2018-07-19T10:52:04.047Z,101239.92
2018-07-19T10:54:32.682Z,101237.06
2018-07-19T10:57:01.596Z,101241.59
2018-07-19T10:59:30.878Z,101233.22
2018-07-19T11:01:59.552Z,101239.59
2018-07-19T11:04:28.523Z,101238.31
2018-07-19T11:06:57.582Z,101240.84
2018-07-19T11:09:26.585Z,101243.94
2018-07-19T11:11:55.190Z,101245.47
2018-07-19T11:14:24.196Z,101243.14
2018-07-19T11:16:52.942Z,101241.10
2018-07-19T11:19:21.917Z,101235.50
2018-07-19T11:21:51.110Z,101243.75
2018-07-19T11:24:19.954Z,101237.25
2018-07-19T11:26:48.607Z,101238.48
2018-07-19T11:29:17.519Z,101240.31
2018-07-19T11:31:46.591Z,101245.98
2018-07-19T11:34:15.751Z,101244.63
2018-07-19T11:36:44.364Z,101244.01
2018-07-19T11:39:13.337Z,101244.26
2018-07-19T11:41:42.548Z,101242.45
2018-07-19T11:44:12.269Z,101243.19
2018-07-19T11:46:41.132Z,101243.11
2018-07-19T11:49:10.087Z,101239.81
2018-07-19T11:51:38.773Z,101243.90
2018-07-19T11:54:08.317Z,101243.23
2018-07-19T11:56:37.353Z,101246.54
2018-07-19T11:59:06.407Z,101236.00
2018-07-19T12:01:35.488Z,101238.88
2018-07-19T12:04:04.405Z,101231.94
2018-07-19T12:06:33.015Z,101226.02
2018-07-19T12:09:01.906Z,101232.48
2018-07-19T12:11:30.678Z,101235.32
2018-07-19T12:13:59.441Z,101226.14
2018-07-19T12:16:28.477Z,101224.30
2018-07-19T12:18:57.356Z,101220.59
2018-07-19T12:21:26.650Z,101214.34
2018-07-19T12:23:55.241Z,101215.77
2018-07-19T12:26:24.258Z,101219.30
2018-07-19T12:28:53.480Z,101219.63
2018-07-19T12:31:22.486Z,101214.75
2018-07-19T12:33:51.130Z,101216.98
2018-07-19T12:36:20.430Z,101214.83
2018-07-19T12:38:49.522Z,101213.78
2018-07-19T12:41:18.138Z,101217.07
2018-07-19T12:43:46.876Z,101214.23
2018-07-19T12:46:15.505Z,101211.92
2018-07-19T12:48:44.381Z,101213.56
2018-07-19T12:51:13.011Z,101217.50
2018-07-19T12:53:41.653Z,101219.73
2018-07-19T12:56:10.225Z,101223.37
2018-07-19T12:58:39.344Z,101230.74
2018-07-19T13:01:09.189Z,101224.69
2018-07-19T13:03:37.859Z,101224.06
2018-07-19T13:06:06.528Z,101230.73
2018-07-19T13:08:35.188Z,101230.07
2018-07-19T13:11:04.099Z,101226.14
2018-07-19T13:13:33.300Z,101230.80
2018-07-19T13:16:02.004Z,101223.70
2018-07-19T13:18:30.941Z,101226.35
2018-07-19T13:20:59.986Z,101226.16
2018-07-19T13:23:29.570Z,101216.50
2018-07-19T13:25:58.317Z,101222.61
2018-07-19T13:28:26.972Z,101219.13
2018-07-19T13:30:55.838Z,101218.47
2018-07-19T13:33:24.845Z,101217.00
2018-07-19T13:35:54.176Z,101224.42
2018-07-19T13:38:22.791Z,101221.03
2018-07-19T13:40:52.645Z,101220.45
2018-07-19T13:43:21.567Z,101203.98
2018-07-19T13:45:50.589Z,101201.23
2018-07-19T13:48:19.541Z,101199.10
2018-07-19T13:50:48.213Z,101196.39
2018-07-19T13:53:38.401Z,101187.00
2018-07-19T13:56:08.056Z,101188.02
2018-07-19T13:58:37.838Z,101188.31
2018-07-19T14:01:06.861Z,101179.83
2018-07-19T14:03:35.668Z,101179.30
2018-07-19T14:06:04.653Z,101168.33
2018-07-19T14:08:33.287Z,101173.77
2018-07-19T14:11:02.249Z,101169.06
2018-07-19T14:13:31.227Z,101175.50
2018-07-19T14:16:00.594Z,101171.91
2018-07-19T14:18:29.786Z,101169.73
2018-07-19T14:20:58.485Z,101166.61
2018-07-19T14:23:28.077Z,101165.53
2018-07-19T14:25:56.788Z,101162.87
2018-07-19T14:28:25.403Z,101158.87
2018-07-19T14:30:54.402Z,101165.45
2018-07-19T14:33:23.012Z,101164.42
2018-07-19T14:35:51.939Z,101156.28
2018-07-19T14:38:20.552Z,101156.53
2018-07-19T14:40:49.539Z,101160.27
2018-07-19T14:43:18.253Z,101157.48
2018-07-19T14:45:46.886Z,101158.03
2018-07-19T14:48:15.505Z,101149.73
2018-07-19T14:50:44.149Z,101151.75
2018-07-19T14:53:13.149Z,101147.27
2018-07-19T14:55:42.722Z,101145.59
2018-07-19T14:58:12.087Z,101149.61
2018-07-19T15:00:41.192Z,101146.70
2018-07-19T15:03:10.123Z,101149.98
2018-07-19T15:05:38.826Z,101146.51
2018-07-19T15:08:09.884Z,101149.77
2018-07-19T15:10:38.892Z,101149.58
2018-07-19T15:13:07.592Z,101143.70
2018-07-19T15:15:36.452Z,101141.14
2018-07-19T15:18:05.190Z,101145.17
2018-07-19T15:20:33.951Z,101141.95
2018-07-19T15:23:03.013Z,101139.58
2018-07-19T15:25:31.991Z,101135.52
2018-07-19T15:28:00.629Z,101131.44
2018-07-19T15:30:29.410Z,101129.84
2018-07-19T15:32:58.098Z,101131.20
2018-07-19T15:35:26.760Z,101131.48
2018-07-19T15:37:55.743Z,101130.06
2018-07-19T15:40:24.356Z,101127.30
2018-07-19T15:42:53.582Z,101121.20
2018-07-19T15:45:23.696Z,101119.62
2018-07-19T15:47:53.271Z,101124.24
2018-07-19T15:50:21.898Z,101122.64
2018-07-19T15:52:50.592Z,101127.09
2018-07-19T15:55:19.281Z,101120.01
2018-07-19T15:57:48.233Z,101118.92
2018-07-19T16:00:17.539Z,101119.23
2018-07-19T16:02:46.432Z,101114.30
2018-07-19T16:05:15.406Z,101118.73
2018-07-19T16:07:44.110Z,101114.66
2018-07-19T16:10:13.295Z,101120.73
2018-07-19T16:12:43.389Z,101124.33
2018-07-19T16:15:12.318Z,101110.39
2018-07-19T16:17:41.002Z,101112.89
2018-07-19T16:20:10.083Z,101109.66
2018-07-19T16:22:39.230Z,101110.26
2018-07-19T16:25:07.985Z,101103.41
2018-07-19T16:27:36.928Z,101110.30
2018-07-19T16:30:06.178Z,101103.69
2018-07-19T16:32:34.827Z,101104.24
2018-07-19T16:35:03.553Z,101108.64
2018-07-19T16:37:32.171Z,101107.56
2018-07-19T16:40:00.757Z,101109.20
2018-07-19T16:42:29.480Z,101109.77
2018-07-19T16:44:58.212Z,101114.41
2018-07-19T16:47:26.925Z,101108.41
2018-07-19T16:49:55.902Z,101113.88
2018-07-19T16:52:24.564Z,101108.42
2018-07-19T16:54:53.212Z,101103.48
2018-07-19T16:57:22.140Z,101100.20
2018-07-19T16:59:51.300Z,101102.67
2018-07-19T17:02:20.518Z,101101.02
2018-07-19T17:04:49.687Z,101093.07
2018-07-19T17:07:18.554Z,101098.27
2018-07-19T17:09:47.273Z,101099.91
2018-07-19T17:12:15.988Z,101095.23
2018-07-19T17:14:44.686Z,101100.71
2018-07-19T17:17:13.637Z,101107.80
2018-07-19T17:19:42.425Z,101109.72
2018-07-19T17:22:11.456Z,101104.53
2018-07-19T17:24:40.161Z,101111.08
2018-07-19T17:27:09.226Z,101106.12
2018-07-19T17:29:38.102Z,101111.57
2018-07-19T17:32:08.247Z,101110.47
2018-07-19T17:34:37.342Z,101106.91
2018-07-19T17:37:06.910Z,101117.24
2018-07-19T17:39:35.655Z,101118.66
2018-07-19T17:42:05.236Z,101114.22
2018-07-19T17:44:34.167Z,101115.02
2018-07-19T17:47:02.876Z,101125.09
2018-07-19T17:49:31.642Z,101117.17
2018-07-19T17:52:00.905Z,101119.61
2018-07-19T17:54:29.528Z,101127.81
2018-07-19T17:56:58.946Z,101126.45
2018-07-19T17:59:27.973Z,101128.33
2018-07-19T18:01:57.069Z,101133.21
2018-07-19T18:04:25.702Z,101133.75
2018-07-19T18:06:54.504Z,101140.00
2018-07-19T18:09:23.262Z,101143.84
2018-07-19T18:11:51.906Z,101142.45
2018-07-19T18:14:20.766Z,101139.16
2018-07-19T18:16:50.892Z,101142.16
2018-07-19T18:19:21.040Z,101148.10
2018-07-19T18:21:49.728Z,101145.95
2018-07-19T18:24:18.704Z,101145.84
2018-07-19T18:26:47.473Z,101151.52
2018-07-19T18:29:16.186Z,101156.16
2018-07-19T18:31:45.161Z,101162.41
2018-07-19T18:34:13.843Z,101159.95
2018-07-19T18:36:42.502Z,101155.00
2018-07-19T18:39:12.785Z,101159.34
2018-07-19T18:41:41.591Z,101163.98
2018-07-19T18:44:10.564Z,101171.34
2018-07-19T18:46:39.860Z,101168.58
2018-07-19T18:49:08.647Z,101166.61
2018-07-19T18:51:37.276Z,101170.14
2018-07-19T18:54:06.010Z,101172.01
2018-07-19T18:56:36.442Z,101174.20
2018-07-19T18:59:10.009Z,101174.12
2018-07-19T19:01:38.754Z,101174.12
2018-07-19T19:04:07.441Z,101178.19
2018-07-19T19:06:36.480Z,101179.48
2018-07-19T19:09:09.629Z,101183.31
2018-07-19T19:11:38.292Z,101188.70
2018-07-19T19:14:07.826Z,101192.75
2018-07-19T19:16:36.400Z,101194.30
2018-07-19T19:19:05.827Z,101192.92
2018-07-19T19:21:34.809Z,101195.61
2018-07-19T19:24:03.561Z,101189.87
2018-07-19T19:26:32.597Z,101195.61
2018-07-19T19:29:01.507Z,101198.00
2018-07-19T19:31:31.869Z,101201.23
2018-07-19T19:34:00.871Z,101201.22
2018-07-19T19:36:29.925Z,101204.45
2018-07-19T19:38:59.297Z,101203.28
2018-07-19T19:41:27.965Z,101205.72
2018-07-19T19:43:56.846Z,101208.15
2018-07-19T19:46:25.594Z,101212.20
2018-07-19T19:48:54.215Z,101213.84
2018-07-19T19:51:23.542Z,101211.61
2018-07-19T19:53:53.991Z,101211.53
2018-07-19T19:56:22.797Z,101213.17
2018-07-19T19:58:51.782Z,101216.38
2018-07-19T20:01:20.483Z,101206.56
2018-07-19T20:03:49.454Z,101213.08
2018-07-19T20:06:18.211Z,101208.66
2018-07-19T20:08:52.739Z,101205.88
2018-07-19T20:11:21.507Z,101203.88
2018-07-19T20:13:50.360Z,101211.81
2018-07-19T20:16:19.076Z,101209.81
2018-07-19T20:18:48.398Z,101208.92
2018-07-19T20:21:23.069Z,101206.78
2018-07-19T20:23:52.462Z,101202.70
2018-07-19T20:26:21.326Z,101207.56
2018-07-19T20:28:50.736Z,101208.63
2018-07-19T20:31:19.327Z,101210.22
2018-07-19T20:33:48.041Z,101209.64
2018-07-19T20:36:17.169Z,101207.98
2018-07-19T20:38:46.600Z,101205.84
2018-07-19T20:41:16.083Z,101202.54
2018-07-19T20:43:45.415Z,101198.03
2018-07-19T20:46:20.345Z,101202.83
2018-07-19T20:48:49.301Z,101198.58
2018-07-19T20:51:18.842Z,101198.81
2018-07-19T20:53:47.497Z,101198.98
2018-07-19T20:56:16.263Z,101207.81
2018-07-19T20:58:45.072Z,101204.92
2018-07-19T21:01:14.072Z,101201.11
2018-07-19T21:03:43.900Z,101201.83
2018-07-19T21:06:13.028Z,101206.30
2018-07-19T21:08:42.888Z,101203.51
2018-07-19T21:11:11.802Z,101212.14
2018-07-19T21:13:42.103Z,101208.75
2018-07-19T21:16:11.832Z,101206.70
2018-07-19T21:18:41.648Z,101208.20
2018-07-19T21:21:11.481Z,101202.36
2018-07-19T21:23:40.486Z,101208.44
2018-07-19T21:26:09.200Z,101206.55
2018-07-19T21:28:39.797Z,101201.41
2018-07-19T21:31:08.760Z,101202.77
2018-07-19T21:33:38.322Z,101205.52
2018-07-19T21:36:06.951Z,101198.70
2018-07-19T21:38:35.828Z,101201.12
2018-07-19T21:41:05.076Z,101202.77
2018-07-19T21:43:35.104Z,101199.76
2018-07-19T21:46:04.264Z,101204.61
2018-07-19T21:48:33.673Z,101199.37
2018-07-19T21:51:02.600Z,101193.80
2018-07-19T21:53:31.382Z,101200.83
2018-07-19T21:56:00.325Z,101204.19
2018-07-19T21:58:29.674Z,101202.53
2018-07-19T22:01:03.494Z,101207.38
2018-07-19T22:03:32.857Z,101211.53
2018-07-19T22:06:01.821Z,101210.08
2018-07-19T22:08:30.884Z,101204.32
2018-07-19T22:11:00.799Z,101205.02
2018-07-19T22:13:29.965Z,101204.92
2018-07-19T22:15:59.056Z,101206.81
2018-07-19T22:18:27.701Z,101206.55
2018-07-19T22:20:56.396Z,101205.95
2018-07-19T22:23:25.078Z,101205.72
2018-07-19T22:25:54.028Z,101208.23
2018-07-19T22:28:23.546Z,101213.14
2018-07-19T22:30:52.597Z,101211.91
2018-07-19T22:33:22.045Z,101208.01
2018-07-19T22:35:50.947Z,101207.08
2018-07-19T22:38:20.199Z,101211.77
2018-07-19T22:40:49.083Z,101214.02
2018-07-19T22:43:18.636Z,101214.62
2018-07-19T22:45:47.486Z,101218.44
2018-07-19T22:48:16.472Z,101219.53
2018-07-19T22:50:45.422Z,101216.55
2018-07-19T22:53:14.126Z,101221.52
2018-07-19T22:55:42.716Z,101223.02
2018-07-19T22:58:11.689Z,101219.84
2018-07-19T23:00:40.428Z,101225.57
2018-07-19T23:03:09.678Z,101220.14
2018-07-19T23:05:38.662Z,101223.91
2018-07-19T23:08:07.337Z,101224.23
2018-07-19T23:10:36.038Z,101224.70
2018-07-19T23:13:04.745Z,101225.48
2018-07-19T23:15:33.383Z,101223.34
2018-07-19T23:18:02.317Z,101219.04
2018-07-19T23:20:31.062Z,101223.08
2018-07-19T23:23:00.103Z,101227.76
2018-07-19T23:25:28.991Z,101222.29
2018-07-19T23:27:57.999Z,101224.48
2018-07-19T23:30:29.733Z,101228.84
2018-07-19T23:32:58.414Z,101223.65
2018-07-19T23:36:30.129Z,101223.42
2018-07-19T23:39:07.421Z,101224.48
2018-07-19T23:41:46.449Z,101220.86
2018-07-19T23:44:19.558Z,101221.62
2018-07-19T23:46:58.471Z,101215.63
2018-07-19T23:49:27.374Z,101212.61
2018-07-19T23:51:56.273Z,101216.08
2018-07-19T23:54:24.870Z,101217.93
2018-07-19T23:56:53.495Z,101222.68
2018-07-19T23:59:22.458Z,101220.08
